Time;durP1;ratioP1;P1;durP2;ratioP2;P2;SDS_P1;SDS_P2;PMS_P1;PMS_P2;Temp;Humidity;BMP_temperature;BMP_pressure;BME280_temperature;BME280_humidity;BME280_pressure;Samples;Min_cycle;Max_cycle;Signal;HPM_P1;HPM_P2
2024/04/14 00:01:06;;;;;;;;;;;;;;;;;;5451318;26;19960;-64
2024/04/14 00:03:31;;;;;;;;;;;;;;;;;;5451261;26;19997;-64
2024/04/14 00:05:56;;;;;;;;;;;;;;;;;;5451055;26;19936;-64
2024/04/14 00:08:21;;;;;;;;;;;;;;;;;;5451217;26;19967;-64
2024/04/14 00:10:46;;;;;;;;;;;;;;;;;;5450960;26;19928;-64
2024/04/14 00:13:12;;;;;;;;;;;;;;;;;;5440571;26;19929;-64
2024/04/14 00:15:37;;;;;;;;;;;;;;;;;;5419270;26;19940;-64
2024/04/14 00:18:02;;;;;;;;;;;;;;;;;;5450990;26;19935;-64
2024/04/14 00:20:28;;;;;;;;;;;;;;;;;;5450604;26;19929;-64
2024/04/14 00:22:53;;;;;;;;;;;;;;;;;;5450365;26;20376;-64
2024/04/14 00:25:18;;;;;;;;;;;;;;;;;;5450118;26;19928;-64
2024/04/14 00:27:43;;;;;;;;;;;;;;;;;;5449632;26;19932;-64
2024/04/14 00:30:08;;;;;;;;;;;;;;;;;;5450094;26;19940;-63
2024/04/14 00:32:33;;;;;;;;;;;;;;;;;;5450692;26;19932;-64
2024/04/14 00:34:59;;;;;;;;;;;;;;;;;;5450794;26;19932;-64
2024/04/14 00:37:25;;;;;;;;;;;;;;;;;;5450582;26;19935;-64
2024/04/14 00:39:50;;;;;;;;;;;;;;;;;;5450592;26;19935;-64
2024/04/14 00:42:15;;;;;;;;;;;;;;;;;;5450205;26;19937;-64
2024/04/14 00:44:41;;;;;;;;;;;;;;;;;;5449945;26;19928;-64
2024/04/14 00:47:06;;;;;;;;;;;;;;;;;;5450328;26;19928;-64
2024/04/14 00:49:31;;;;;;;;;;;;;;;;;;5450597;26;19944;-64
2024/04/14 00:51:56;;;;;;;;;;;;;;;;;;5453350;26;19929;-64
2024/04/14 00:54:21;;;;;;;;;;;;;;;;;;5450111;26;19940;-64
2024/04/14 00:56:46;;;;;;;;;;;;;;;;;;5450487;26;19932;-64
2024/04/14 00:59:12;;;;;;;;;;;;;;;;;;5450361;26;19928;-64
2024/04/14 01:01:37;;;;;;;;;;;;;;;;;;5449841;26;19980;-64
2024/04/14 01:04:02;;;;;;;;;;;;;;;;;;5450407;26;19929;-63
2024/04/14 01:06:27;;;;;;;;;;;;;;;;;;5449657;26;19978;-64
2024/04/14 01:08:52;;;;;;;;;;;;;;;;;;5450071;26;19939;-64
2024/04/14 01:11:17;;;;;;;;;;;;;;;;;;5450261;26;19997;-64
2024/04/14 01:13:42;;;;;;;;;;;;;;;;;;5433562;26;20005;-64
2024/04/14 01:16:08;;;;;;;;;;;;;;;;;;5415359;26;19937;-64
2024/04/14 01:18:33;;;;;;;;;;;;;;;;;;5415811;26;19936;-64
2024/04/14 01:20:58;;;;;;;;;;;;;;;;;;5449958;26;19928;-65
2024/04/14 01:23:23;;;;;;;;;;;;;;;;;;5447590;26;19929;-64
2024/04/14 01:25:48;;;;;;;;;;;;;;;;;;5449707;26;19932;-64
2024/04/14 01:28:14;;;;;;;;;;;;;;;;;;5454938;26;19932;-64
2024/04/14 01:30:39;;;;;;;;;;;;;;;;;;5449765;26;19935;-64
2024/04/14 01:33:04;;;;;;;;;;;;;;;;;;5450890;26;19958;-64
2024/04/14 01:35:29;;;;;;;;;;;;;;;;;;5453456;26;19929;-64
2024/04/14 01:37:55;;;;;;;;;;;;;;;;;;5453249;26;20330;-64
2024/04/14 01:40:20;;;;;;;;;;;;;;;;;;5453144;26;19996;-64
2024/04/14 01:42:45;;;;;;;;;;;;;;;;;;5447036;26;19929;-64
2024/04/14 01:45:10;;;;;;;;;;;;;;;;;;5418644;26;19987;-64
2024/04/14 01:47:35;;;;;;;;;;;;;;;;;;5438793;26;19959;-63
2024/04/14 01:50:01;;;;;;;;;;;;;;;;;;5453098;26;20361;-63
2024/04/14 01:52:26;;;;;;;;;;;;;;;;;;5452508;26;19929;-64
2024/04/14 01:54:51;;;;;;;;;;;;;;;;;;5449753;26;19936;-64
2024/04/14 01:57:16;;;;;;;;;;;;;;;;;;5418101;26;20271;-64
2024/04/14 01:59:41;;;;;;;;;;;;;;;;;;5451188;26;20398;-64
2024/04/14 02:02:06;;;;;;;;;;;;;;;;;;5452890;26;20269;-64
2024/04/14 02:04:32;;;;;;;;;;;;;;;;;;5452782;26;19954;-64
2024/04/14 02:06:57;;;;;;;;;;;;;;;;;;5452945;26;19929;-64
2024/04/14 02:09:22;;;;;;;;;;;;;;;;;;5452797;26;19996;-64
2024/04/14 02:11:47;;;;;;;;;;;;;;;;;;5452742;26;19997;-64
2024/04/14 02:14:12;;;;;;;;;;;;;;;;;;5451776;26;20025;-63
2024/04/14 02:16:38;;;;;;;;;;;;;;;;;;5452354;26;20273;-64
2024/04/14 02:19:03;;;;;;;;;;;;;;;;;;5452937;26;19936;-64
2024/04/14 02:21:28;;;;;;;;;;;;;;;;;;5452781;26;19943;-64
2024/04/14 02:23:54;;;;;;;;;;;;;;;;;;5452439;26;19997;-64
2024/04/14 02:26:19;;;;;;;;;;;;;;;;;;5452705;26;19997;-63
2024/04/14 02:28:44;;;;;;;;;;;;;;;;;;5456748;26;19936;-64
2024/04/14 02:31:10;;;;;;;;;;;;;;;;;;5452544;26;19997;-64
2024/04/14 02:33:35;;;;;;;;;;;;;;;;;;5452243;26;19944;-60
2024/04/14 02:36:00;;;;;;;;;;;;;;;;;;5452585;26;20273;-62
2024/04/14 02:38:25;;;;;;;;;;;;;;;;;;5452436;26;19932;-61
2024/04/14 02:40:50;;;;;;;;;;;;;;;;;;5451975;26;19933;-61
2024/04/14 02:43:16;;;;;;;;;;;;;;;;;;5445930;26;19929;-61
2024/04/14 02:45:41;;;;;;;;;;;;;;;;;;5417194;26;19945;-62
2024/04/14 02:48:06;;;;;;;;;;;;;;;;;;5450403;26;19928;-61
2024/04/14 02:50:31;;;;;;;;;;;;;;;;;;5452130;26;19933;-61
2024/04/14 02:52:56;;;;;;;;;;;;;;;;;;5451872;26;19929;-61
2024/04/14 02:55:21;;;;;;;;;;;;;;;;;;5452100;26;20300;-62
2024/04/14 02:57:46;;;;;;;;;;;;;;;;;;5452211;26;19952;-61
2024/04/14 03:00:11;;;;;;;;;;;;;;;;;;5452103;26;19933;-61
2024/04/14 03:02:37;;;;;;;;;;;;;;;;;;5452266;26;19929;-61
2024/04/14 03:05:02;;;;;;;;;;;;;;;;;;5451872;26;20272;-62
2024/04/14 03:07:28;;;;;;;;;;;;;;;;;;5446910;26;19936;-61
2024/04/14 03:09:53;;;;;;;;;;;;;;;;;;5451843;26;19928;-61
2024/04/14 03:12:18;;;;;;;;;;;;;;;;;;5451820;26;19928;-62
2024/04/14 03:14:43;;;;;;;;;;;;;;;;;;5447504;26;19936;-61
2024/04/14 03:17:08;;;;;;;;;;;;;;;;;;5426594;26;19998;-61
2024/04/14 03:19:33;;;;;;;;;;;;;;;;;;5417162;26;19929;-60
2024/04/14 03:21:58;;;;;;;;;;;;;;;;;;5425678;26;20377;-61
2024/04/14 03:24:24;;;;;;;;;;;;;;;;;;5451399;26;20365;-61
2024/04/14 03:26:49;;;;;;;;;;;;;;;;;;5451740;26;20609;-60
2024/04/14 03:29:14;;;;;;;;;;;;;;;;;;5455139;26;19996;-61
2024/04/14 03:31:39;;;;;;;;;;;;;;;;;;5447230;26;19940;-61
2024/04/14 03:34:04;;;;;;;;;;;;;;;;;;5420442;26;19941;-61
2024/04/14 03:36:29;;;;;;;;;;;;;;;;;;5416899;26;19940;-62
2024/04/14 03:38:54;;;;;;;;;;;;;;;;;;5440067;26;20377;-61
2024/04/14 03:41:21;;;;;;;;;;;;;;;;;;5451180;26;19928;-61
2024/04/14 03:43:47;;;;;;;;;;;;;;;;;;5436836;26;19929;-61
2024/04/14 03:46:12;;;;;;;;;;;;;;;;;;5416458;26;20006;-61
2024/04/14 03:48:37;;;;;;;;;;;;;;;;;;5424613;26;20389;-61
2024/04/14 03:51:02;;;;;;;;;;;;;;;;;;5416353;26;20305;-61
2024/04/14 03:53:27;;;;;;;;;;;;;;;;;;5416423;26;20277;-61
2024/04/14 03:55:52;;;;;;;;;;;;;;;;;;5415491;26;20373;-60
2024/04/14 03:58:17;;;;;;;;;;;;;;;;;;5443560;26;20001;-61
2024/04/14 04:00:42;;;;;;;;;;;;;;;;;;5451255;26;19939;-61
2024/04/14 04:03:08;;;;;;;;;;;;;;;;;;5450785;26;19939;-61
2024/04/14 04:05:33;;;;;;;;;;;;;;;;;;5451174;26;20280;-61
2024/04/14 04:07:58;;;;;;;;;;;;;;;;;;5451464;26;19936;-61
2024/04/14 04:10:23;;;;;;;;;;;;;;;;;;5451150;26;19940;-62
2024/04/14 04:12:48;;;;;;;;;;;;;;;;;;5450083;26;19929;-61
2024/04/14 04:15:13;;;;;;;;;;;;;;;;;;5421632;26;19929;-60
2024/04/14 04:17:38;;;;;;;;;;;;;;;;;;5416315;26;19933;-62
2024/04/14 04:20:04;;;;;;;;;;;;;;;;;;5416461;26;19936;-62
2024/04/14 04:22:29;;;;;;;;;;;;;;;;;;5416426;26;20285;-61
2024/04/14 04:24:54;;;;;;;;;;;;;;;;;;5416187;26;19933;-62
2024/04/14 04:27:19;;;;;;;;;;;;;;;;;;5455091;26;19983;-61
2024/04/14 04:29:44;;;;;;;;;;;;;;;;;;5450752;26;20273;-62
2024/04/14 04:32:10;;;;;;;;;;;;;;;;;;5450670;26;20272;-60
2024/04/14 04:34:35;;;;;;;;;;;;;;;;;;5450841;26;20433;-61
2024/04/14 04:37:00;;;;;;;;;;;;;;;;;;5451123;26;19955;-60
2024/04/14 04:39:25;;;;;;;;;;;;;;;;;;5450946;26;19937;-62
2024/04/14 04:41:50;;;;;;;;;;;;;;;;;;5450318;26;19961;-61
2024/04/14 04:44:16;;;;;;;;;;;;;;;;;;5428236;26;19929;-61
2024/04/14 04:46:41;;;;;;;;;;;;;;;;;;5415772;26;20023;-61
2024/04/14 04:49:06;;;;;;;;;;;;;;;;;;5440042;26;19972;-61
2024/04/14 04:51:31;;;;;;;;;;;;;;;;;;5450446;26;19940;-61
2024/04/14 04:53:56;;;;;;;;;;;;;;;;;;5450614;26;19929;-61
2024/04/14 04:56:21;;;;;;;;;;;;;;;;;;5450426;26;19935;-61
2024/04/14 04:58:46;;;;;;;;;;;;;;;;;;5450647;26;19929;-61
2024/04/14 05:01:11;;;;;;;;;;;;;;;;;;5450802;26;19940;-61
2024/04/14 05:03:37;;;;;;;;;;;;;;;;;;5450348;26;20377;-64
2024/04/14 05:06:02;;;;;;;;;;;;;;;;;;5450015;26;19948;-64
2024/04/14 05:08:27;;;;;;;;;;;;;;;;;;5450086;26;19932;-64
2024/04/14 05:10:52;;;;;;;;;;;;;;;;;;5450178;26;20752;-64
2024/04/14 05:13:18;;;;;;;;;;;;;;;;;;5450106;26;19929;-62
2024/04/14 05:15:43;;;;;;;;;;;;;;;;;;5442312;26;19933;-61
2024/04/14 05:18:08;;;;;;;;;;;;;;;;;;5415456;26;19998;-61
2024/04/14 05:20:34;;;;;;;;;;;;;;;;;;5424328;26;19997;-61
2024/04/14 05:22:59;;;;;;;;;;;;;;;;;;5450106;26;19936;-60
2024/04/14 05:25:24;;;;;;;;;;;;;;;;;;5453989;26;19928;-61
2024/04/14 05:27:49;;;;;;;;;;;;;;;;;;5451848;26;19932;-62
2024/04/14 05:30:14;;;;;;;;;;;;;;;;;;5448673;26;19929;-61
2024/04/14 05:32:39;;;;;;;;;;;;;;;;;;5450027;26;19948;-60
2024/04/14 05:35:05;;;;;;;;;;;;;;;;;;5449607;26;19928;-62
2024/04/14 05:37:30;;;;;;;;;;;;;;;;;;5449688;26;19928;-61
2024/04/14 05:39:55;;;;;;;;;;;;;;;;;;5449675;26;19960;-60
2024/04/14 05:42:20;;;;;;;;;;;;;;;;;;5449523;26;19936;-63
2024/04/14 05:44:46;;;;;;;;;;;;;;;;;;5419214;26;19936;-62
2024/04/14 05:47:11;;;;;;;;;;;;;;;;;;5419959;26;19978;-61
2024/04/14 05:49:36;;;;;;;;;;;;;;;;;;5441102;26;19936;-61
2024/04/14 05:52:01;;;;;;;;;;;;;;;;;;5447800;26;19943;-61
2024/04/14 05:54:28;;;;;;;;;;;;;;;;;;5449282;26;19935;-62
2024/04/14 05:56:53;;;;;;;;;;;;;;;;;;5449109;26;19936;-61
2024/04/14 05:59:18;;;;;;;;;;;;;;;;;;5449307;26;19940;-61
2024/04/14 06:01:43;;;;;;;;;;;;;;;;;;5449366;26;20369;-62
2024/04/14 06:04:08;;;;;;;;;;;;;;;;;;5437252;26;20386;-62
2024/04/14 06:06:33;;;;;;;;;;;;;;;;;;5414461;26;20343;-61
2024/04/14 06:08:59;;;;;;;;;;;;;;;;;;5414277;26;20281;-61
2024/04/14 06:11:24;;;;;;;;;;;;;;;;;;5414339;26;20311;-61
2024/04/14 06:13:49;;;;;;;;;;;;;;;;;;5435578;26;19939;-62
2024/04/14 06:16:14;;;;;;;;;;;;;;;;;;5449654;26;19932;-62
2024/04/14 06:18:39;;;;;;;;;;;;;;;;;;5449625;26;19948;-62
2024/04/14 06:21:04;;;;;;;;;;;;;;;;;;5452640;26;20334;-62
2024/04/14 06:23:29;;;;;;;;;;;;;;;;;;5452691;26;19936;-61
2024/04/14 06:25:55;;;;;;;;;;;;;;;;;;5458727;26;19940;-62
2024/04/14 06:28:20;;;;;;;;;;;;;;;;;;5452706;26;20257;-61
2024/04/14 06:30:45;;;;;;;;;;;;;;;;;;5452661;26;20392;-62
2024/04/14 06:33:10;;;;;;;;;;;;;;;;;;5452724;26;19928;-62
2024/04/14 06:35:37;;;;;;;;;;;;;;;;;;5452801;26;20280;-61
2024/04/14 06:38:02;;;;;;;;;;;;;;;;;;5452571;26;19935;-61
2024/04/14 06:40:27;;;;;;;;;;;;;;;;;;5452311;26;19928;-61
2024/04/14 06:42:52;;;;;;;;;;;;;;;;;;5447978;26;19928;-61
2024/04/14 06:45:18;;;;;;;;;;;;;;;;;;5417905;26;19940;-61
2024/04/14 06:47:43;;;;;;;;;;;;;;;;;;5436627;26;19997;-62
2024/04/14 06:50:10;;;;;;;;;;;;;;;;;;5452087;26;19928;-61
2024/04/14 06:52:35;;;;;;;;;;;;;;;;;;5442146;26;20405;-61
2024/04/14 06:55:00;;;;;;;;;;;;;;;;;;5436412;26;19935;-61
2024/04/14 06:57:25;;;;;;;;;;;;;;;;;;5440694;26;20388;-62
2024/04/14 06:59:50;;;;;;;;;;;;;;;;;;5450228;26;20426;-63
2024/04/14 07:02:15;;;;;;;;;;;;;;;;;;5434023;26;20265;-62
2024/04/14 07:04:40;;;;;;;;;;;;;;;;;;5436387;26;20394;-62
2024/04/14 07:07:05;;;;;;;;;;;;;;;;;;5435380;26;19997;-63
2024/04/14 07:09:31;;;;;;;;;;;;;;;;;;5436753;26;19932;-62
2024/04/14 07:11:56;;;;;;;;;;;;;;;;;;5435757;26;19943;-63
2024/04/14 07:14:21;;;;;;;;;;;;;;;;;;5442846;26;20001;-62
2024/04/14 07:16:46;;;;;;;;;;;;;;;;;;5436196;26;19928;-63
2024/04/14 07:19:12;;;;;;;;;;;;;;;;;;5434918;26;19932;-61
2024/04/14 07:21:37;;;;;;;;;;;;;;;;;;5438214;26;20373;-63
2024/04/14 07:24:02;;;;;;;;;;;;;;;;;;5434992;26;19935;-64
2024/04/14 07:26:27;;;;;;;;;;;;;;;;;;5433188;26;19962;-65
2024/04/14 07:28:52;;;;;;;;;;;;;;;;;;5442100;26;19935;-65
2024/04/14 07:31:17;;;;;;;;;;;;;;;;;;5444549;26;19998;-65
2024/04/14 07:33:42;;;;;;;;;;;;;;;;;;5437471;26;19936;-65
2024/04/14 07:36:08;;;;;;;;;;;;;;;;;;5447638;26;19997;-66
2024/04/14 07:38:33;;;;;;;;;;;;;;;;;;5443694;26;20025;-65
2024/04/14 07:40:58;;;;;;;;;;;;;;;;;;5432619;26;19929;-64
2024/04/14 07:43:23;;;;;;;;;;;;;;;;;;5438604;26;20239;-64
2024/04/14 07:45:48;;;;;;;;;;;;;;;;;;5433623;26;20258;-65
2024/04/14 07:48:13;;;;;;;;;;;;;;;;;;5431621;26;19929;-64
2024/04/14 07:50:38;;;;;;;;;;;;;;;;;;5450308;26;20372;-64
2024/04/14 07:53:03;;;;;;;;;;;;;;;;;;5451425;26;20357;-64
2024/04/14 07:55:29;;;;;;;;;;;;;;;;;;5442333;26;20370;-64
2024/04/14 07:57:54;;;;;;;;;;;;;;;;;;5432564;26;19929;-65
2024/04/14 08:00:19;;;;;;;;;;;;;;;;;;5436602;26;19937;-65
2024/04/14 08:02:45;;;;;;;;;;;;;;;;;;5439873;26;19937;-65
2024/04/14 08:05:10;;;;;;;;;;;;;;;;;;5434637;26;19939;-64
2024/04/14 08:07:35;;;;;;;;;;;;;;;;;;5432878;26;19929;-66
2024/04/14 08:10:00;;;;;;;;;;;;;;;;;;5437335;26;20013;-65
2024/04/14 08:12:27;;;;;;;;;;;;;;;;;;5433717;26;20372;-65
2024/04/14 08:14:52;;;;;;;;;;;;;;;;;;5435210;26;19933;-65
2024/04/14 08:17:18;;;;;;;;;;;;;;;;;;5443069;26;19940;-64
2024/04/14 08:19:43;;;;;;;;;;;;;;;;;;5446430;26;19997;-64
2024/04/14 08:22:08;;;;;;;;;;;;;;;;;;5447177;26;19935;-65
2024/04/14 08:24:33;;;;;;;;;;;;;;;;;;5444947;26;19937;-64
2024/04/14 08:26:59;;;;;;;;;;;;;;;;;;5433091;26;19935;-64
2024/04/14 08:29:25;;;;;;;;;;;;;;;;;;5447246;26;20010;-64
2024/04/14 08:31:50;;;;;;;;;;;;;;;;;;5442935;26;20377;-64
2024/04/14 08:34:15;;;;;;;;;;;;;;;;;;5449326;26;19935;-64
2024/04/14 08:36:41;;;;;;;;;;;;;;;;;;5443139;26;19943;-64
2024/04/14 08:39:06;;;;;;;;;;;;;;;;;;5450700;26;20429;-64
2024/04/14 08:41:31;;;;;;;;;;;;;;;;;;5450037;26;19935;-65
2024/04/14 08:43:57;;;;;;;;;;;;;;;;;;5449611;26;19939;-64
2024/04/14 08:46:22;;;;;;;;;;;;;;;;;;5448050;26;19928;-64
2024/04/14 08:48:48;;;;;;;;;;;;;;;;;;5451386;26;19935;-64
2024/04/14 08:51:13;;;;;;;;;;;;;;;;;;5450052;26;19963;-64
2024/04/14 08:53:38;;;;;;;;;;;;;;;;;;5450728;26;20000;-64
2024/04/14 08:56:03;;;;;;;;;;;;;;;;;;5448398;26;19932;-64
2024/04/14 08:58:30;;;;;;;;;;;;;;;;;;5451040;26;19928;-64
2024/04/14 09:00:56;;;;;;;;;;;;;;;;;;5448290;26;20040;-64
2024/04/14 09:03:21;;;;;;;;;;;;;;;;;;5449903;26;19936;-64
2024/04/14 09:05:46;;;;;;;;;;;;;;;;;;5449818;26;19932;-64
2024/04/14 09:08:11;;;;;;;;;;;;;;;;;;5449762;26;19928;-64
2024/04/14 09:10:36;;;;;;;;;;;;;;;;;;5426872;26;19936;-64
2024/04/14 09:13:03;;;;;;;;;;;;;;;;;;5444616;26;19929;-64
2024/04/14 09:15:28;;;;;;;;;;;;;;;;;;5449638;26;19929;-64
2024/04/14 09:17:53;;;;;;;;;;;;;;;;;;5447792;26;19936;-64
2024/04/14 09:20:18;;;;;;;;;;;;;;;;;;5450690;26;19996;-64
2024/04/14 09:22:43;;;;;;;;;;;;;;;;;;5449906;26;19929;-64
2024/04/14 09:25:08;;;;;;;;;;;;;;;;;;5450101;26;19952;-64
2024/04/14 09:27:34;;;;;;;;;;;;;;;;;;5448775;26;19929;-63
2024/04/14 09:29:59;;;;;;;;;;;;;;;;;;5447048;26;19935;-65
2024/04/14 09:32:24;;;;;;;;;;;;;;;;;;5447781;26;19940;-65
2024/04/14 09:34:49;;;;;;;;;;;;;;;;;;5449078;26;20281;-64
2024/04/14 09:37:14;;;;;;;;;;;;;;;;;;5449231;26;19928;-64
2024/04/14 09:39:40;;;;;;;;;;;;;;;;;;5449747;26;19997;-64
2024/04/14 09:42:05;;;;;;;;;;;;;;;;;;5450213;26;20027;-64
2024/04/14 09:44:30;;;;;;;;;;;;;;;;;;5448084;26;19928;-64
2024/04/14 09:46:55;;;;;;;;;;;;;;;;;;5446523;26;19933;-64
2024/04/14 09:49:21;;;;;;;;;;;;;;;;;;5449178;26;19929;-64
2024/04/14 09:51:46;;;;;;;;;;;;;;;;;;5448063;26;20001;-65
2024/04/14 09:54:11;;;;;;;;;;;;;;;;;;5451462;26;20001;-62
2024/04/14 09:56:36;;;;;;;;;;;;;;;;;;5450784;26;19944;-63
2024/04/14 09:59:01;;;;;;;;;;;;;;;;;;5452862;26;19936;-62
2024/04/14 10:01:27;;;;;;;;;;;;;;;;;;5452185;26;19968;-62
2024/04/14 10:03:54;;;;;;;;;;;;;;;;;;5451213;26;20005;-61
2024/04/14 10:06:20;;;;;;;;;;;;;;;;;;5451254;26;20460;-62
2024/04/14 10:08:45;;;;;;;;;;;;;;;;;;5452490;26;20321;-61
2024/04/14 10:11:10;;;;;;;;;;;;;;;;;;5453408;26;20365;-62
2024/04/14 10:13:35;;;;;;;;;;;;;;;;;;5452542;26;19955;-61
2024/04/14 10:16:00;;;;;;;;;;;;;;;;;;5452631;26;19939;-61
2024/04/14 10:18:27;;;;;;;;;;;;;;;;;;5450191;26;19939;-61
2024/04/14 10:20:55;;;;;;;;;;;;;;;;;;5453273;26;19953;-61
2024/04/14 10:23:20;;;;;;;;;;;;;;;;;;5452616;26;19933;-61
2024/04/14 10:25:46;;;;;;;;;;;;;;;;;;5452699;26;19962;-61
2024/04/14 10:28:12;;;;;;;;;;;;;;;;;;5450780;26;19940;-60
2024/04/14 10:30:37;;;;;;;;;;;;;;;;;;5451402;26;20400;-62
2024/04/14 10:33:02;;;;;;;;;;;;;;;;;;5449996;26;19928;-62
2024/04/14 10:35:27;;;;;;;;;;;;;;;;;;5452393;26;20309;-63
2024/04/14 10:37:52;;;;;;;;;;;;;;;;;;5452452;26;19935;-63
2024/04/14 10:40:17;;;;;;;;;;;;;;;;;;5450967;26;20397;-61
2024/04/14 10:42:43;;;;;;;;;;;;;;;;;;5452877;26;20518;-60
2024/04/14 10:45:08;;;;;;;;;;;;;;;;;;5448967;26;20453;-61
2024/04/14 10:47:33;;;;;;;;;;;;;;;;;;5452633;26;20326;-61
2024/04/14 10:49:58;;;;;;;;;;;;;;;;;;5449443;26;20268;-61
2024/04/14 10:52:23;;;;;;;;;;;;;;;;;;5450166;26;19939;-62
2024/04/14 10:54:48;;;;;;;;;;;;;;;;;;5451838;26;19929;-61
2024/04/14 10:57:13;;;;;;;;;;;;;;;;;;5453146;26;20265;-61
2024/04/14 10:59:39;;;;;;;;;;;;;;;;;;5449976;26;19936;-60
2024/04/14 11:02:04;;;;;;;;;;;;;;;;;;5451720;26;19956;-62
2024/04/14 11:04:29;;;;;;;;;;;;;;;;;;5451674;26;19928;-61
2024/04/14 11:06:54;;;;;;;;;;;;;;;;;;5452342;26;19936;-60
2024/04/14 11:09:19;;;;;;;;;;;;;;;;;;5446519;26;19997;-61
2024/04/14 11:11:44;;;;;;;;;;;;;;;;;;5449445;26;19996;-60
2024/04/14 11:14:09;;;;;;;;;;;;;;;;;;5451659;26;19928;-62
2024/04/14 11:16:35;;;;;;;;;;;;;;;;;;5451304;26;20397;-60
2024/04/14 11:19:00;;;;;;;;;;;;;;;;;;5451333;26;20377;-62
2024/04/14 11:21:27;;;;;;;;;;;;;;;;;;5448887;26;20254;-60
2024/04/14 11:23:52;;;;;;;;;;;;;;;;;;5450173;26;19972;-60
2024/04/14 11:26:17;;;;;;;;;;;;;;;;;;5452497;26;19936;-61
2024/04/14 11:28:42;;;;;;;;;;;;;;;;;;5451149;26;19960;-61
2024/04/14 11:31:08;;;;;;;;;;;;;;;;;;5452426;26;19940;-60
2024/04/14 11:33:33;;;;;;;;;;;;;;;;;;5450698;26;19936;-60
2024/04/14 11:35:59;;;;;;;;;;;;;;;;;;5451302;26;19950;-61
2024/04/14 11:38:24;;;;;;;;;;;;;;;;;;5449376;26;19962;-60
2024/04/14 11:40:49;;;;;;;;;;;;;;;;;;5451007;26;19929;-62
2024/04/14 11:43:14;;;;;;;;;;;;;;;;;;5448797;26;20373;-60
2024/04/14 11:45:39;;;;;;;;;;;;;;;;;;5451390;26;20373;-60
2024/04/14 11:48:04;;;;;;;;;;;;;;;;;;5451359;26;20269;-60
2024/04/14 11:50:29;;;;;;;;;;;;;;;;;;5450076;26;19928;-62
2024/04/14 11:52:55;;;;;;;;;;;;;;;;;;5449616;26;19932;-61
2024/04/14 11:55:20;;;;;;;;;;;;;;;;;;5451696;26;19936;-61
2024/04/14 11:57:45;;;;;;;;;;;;;;;;;;5451046;26;19936;-61
2024/04/14 12:00:10;;;;;;;;;;;;;;;;;;5450468;26;19932;-61
2024/04/14 12:02:35;;;;;;;;;;;;;;;;;;5450458;26;19940;-62
2024/04/14 12:05:00;;;;;;;;;;;;;;;;;;5452114;26;19946;-64
2024/04/14 12:07:25;;;;;;;;;;;;;;;;;;5448319;26;19928;-64
2024/04/14 12:09:51;;;;;;;;;;;;;;;;;;5450285;26;19936;-64
2024/04/14 12:12:16;;;;;;;;;;;;;;;;;;5451843;26;20359;-65
2024/04/14 12:14:41;;;;;;;;;;;;;;;;;;5451079;26;20369;-64
2024/04/14 12:17:07;;;;;;;;;;;;;;;;;;5450850;26;19928;-64
2024/04/14 12:19:32;;;;;;;;;;;;;;;;;;5450128;26;20357;-64
2024/04/14 12:21:57;;;;;;;;;;;;;;;;;;5448670;26;19936;-64
2024/04/14 12:24:23;;;;;;;;;;;;;;;;;;5450737;26;19997;-65
2024/04/14 12:26:48;;;;;;;;;;;;;;;;;;5447836;26;19932;-64
2024/04/14 12:29:13;;;;;;;;;;;;;;;;;;5472569;26;19956;-64
2024/04/14 12:31:39;;;;;;;;;;;;;;;;;;5475732;26;19928;-64
2024/04/14 12:34:04;;;;;;;;;;;;;;;;;;5476848;26;19936;-64
2024/04/14 12:36:29;;;;;;;;;;;;;;;;;;5476355;26;19996;-64
2024/04/14 12:38:54;;;;;;;;;;;;;;;;;;5465019;26;19978;-64
2024/04/14 12:41:20;;;;;;;;;;;;;;;;;;5464519;26;19960;-64
2024/04/14 12:43:45;;;;;;;;;;;;;;;;;;5448920;26;19935;-64
2024/04/14 12:46:10;;;;;;;;;;;;;;;;;;5450060;26;19928;-64
2024/04/14 12:48:35;;;;;;;;;;;;;;;;;;5450278;26;19948;-65
2024/04/14 12:51:00;;;;;;;;;;;;;;;;;;5450930;26;19958;-65
2024/04/14 12:53:25;;;;;;;;;;;;;;;;;;5447484;26;19928;-65
2024/04/14 12:55:51;;;;;;;;;;;;;;;;;;5449856;26;19933;-65
2024/04/14 12:58:17;;;;;;;;;;;;;;;;;;5447578;26;21721;-64
2024/04/14 13:00:43;;;;;;;;;;;;;;;;;;5448406;26;19935;-64
2024/04/14 13:03:08;;;;;;;;;;;;;;;;;;5450922;26;19935;-64
2024/04/14 13:05:33;;;;;;;;;;;;;;;;;;5448144;26;19932;-64
2024/04/14 13:07:58;;;;;;;;;;;;;;;;;;5448506;26;19935;-64
2024/04/14 13:10:23;;;;;;;;;;;;;;;;;;5449353;26;19928;-64
2024/04/14 13:12:48;;;;;;;;;;;;;;;;;;5447395;26;19928;-65
2024/04/14 13:15:13;;;;;;;;;;;;;;;;;;5449855;26;19929;-64
2024/04/14 13:17:38;;;;;;;;;;;;;;;;;;5449455;26;19964;-64
2024/04/14 13:20:04;;;;;;;;;;;;;;;;;;5450604;26;19935;-64
2024/04/14 13:22:29;;;;;;;;;;;;;;;;;;5449360;26;19928;-65
2024/04/14 13:24:54;;;;;;;;;;;;;;;;;;5447878;26;19944;-64
2024/04/14 13:27:19;;;;;;;;;;;;;;;;;;5446780;26;20272;-65
2024/04/14 13:29:44;;;;;;;;;;;;;;;;;;5444425;26;19929;-65
2024/04/14 13:32:09;;;;;;;;;;;;;;;;;;5450633;26;19939;-64
2024/04/14 13:34:34;;;;;;;;;;;;;;;;;;5449706;26;20018;-65
2024/04/14 13:37:00;;;;;;;;;;;;;;;;;;5450367;26;19998;-65
2024/04/14 13:39:25;;;;;;;;;;;;;;;;;;5449144;26;19936;-64
2024/04/14 13:41:50;;;;;;;;;;;;;;;;;;5448766;26;19933;-65
2024/04/14 13:44:15;;;;;;;;;;;;;;;;;;5448452;26;19928;-64
2024/04/14 13:46:40;;;;;;;;;;;;;;;;;;5449159;26;19935;-64
2024/04/14 13:49:05;;;;;;;;;;;;;;;;;;5450278;26;19936;-65
2024/04/14 13:51:30;;;;;;;;;;;;;;;;;;5449223;26;19940;-64
2024/04/14 13:53:55;;;;;;;;;;;;;;;;;;5449164;26;19987;-65
2024/04/14 13:56:21;;;;;;;;;;;;;;;;;;5448133;26;19928;-64
2024/04/14 13:58:46;;;;;;;;;;;;;;;;;;5449143;26;20229;-64
2024/04/14 14:01:11;;;;;;;;;;;;;;;;;;5446624;26;19943;-65
2024/04/14 14:03:36;;;;;;;;;;;;;;;;;;5448492;26;19997;-65
2024/04/14 14:06:02;;;;;;;;;;;;;;;;;;5448992;26;20339;-64
2024/04/14 14:08:27;;;;;;;;;;;;;;;;;;5450382;26;19936;-64
2024/04/14 14:10:52;;;;;;;;;;;;;;;;;;5448795;26;19932;-64
2024/04/14 14:13:17;;;;;;;;;;;;;;;;;;5447828;26;19928;-64
2024/04/14 14:15:42;;;;;;;;;;;;;;;;;;5449049;26;19935;-64
2024/04/14 14:18:07;;;;;;;;;;;;;;;;;;5449084;26;19935;-64
2024/04/14 14:20:32;;;;;;;;;;;;;;;;;;5449249;26;20381;-65
2024/04/14 14:22:57;;;;;;;;;;;;;;;;;;5448718;26;19929;-64
2024/04/14 14:25:23;;;;;;;;;;;;;;;;;;5449137;26;19935;-61
2024/04/14 14:27:48;;;;;;;;;;;;;;;;;;5446805;26;20365;-60
2024/04/14 14:30:13;;;;;;;;;;;;;;;;;;5448808;26;19936;-61
2024/04/14 14:32:39;;;;;;;;;;;;;;;;;;5448174;26;20365;-61
2024/04/14 14:37:49;;;;;;;;;;;;;;;;;;5449035;26;19971;-60
2024/04/14 14:40:14;;;;;;;;;;;;;;;;;;5451029;26;19929;-60
2024/04/14 14:42:39;;;;;;;;;;;;;;;;;;5447924;26;19929;-61
2024/04/14 14:45:04;;;;;;;;;;;;;;;;;;5453253;26;19976;-62
2024/04/14 14:47:29;;;;;;;;;;;;;;;;;;5450394;26;19929;-61
2024/04/14 14:49:54;;;;;;;;;;;;;;;;;;5453386;26;19935;-60
2024/04/14 14:52:19;;;;;;;;;;;;;;;;;;5452185;26;19952;-61
2024/04/14 14:54:44;;;;;;;;;;;;;;;;;;5452025;26;20257;-61
2024/04/14 14:57:10;;;;;;;;;;;;;;;;;;5449130;26;20001;-60
2024/04/14 14:59:35;;;;;;;;;;;;;;;;;;5452266;26;20277;-61
2024/04/14 15:02:00;;;;;;;;;;;;;;;;;;5451932;26;19939;-61
2024/04/14 15:04:25;;;;;;;;;;;;;;;;;;5451757;26;19996;-61
2024/04/14 15:06:51;;;;;;;;;;;;;;;;;;5452886;26;19935;-60
2024/04/14 15:09:17;;;;;;;;;;;;;;;;;;5449213;26;19936;-60
2024/04/14 15:11:42;;;;;;;;;;;;;;;;;;5450798;26;19960;-62
2024/04/14 15:14:07;;;;;;;;;;;;;;;;;;5450523;26;19929;-61
2024/04/14 15:16:32;;;;;;;;;;;;;;;;;;5451946;26;19936;-62
2024/04/14 15:18:57;;;;;;;;;;;;;;;;;;5452585;26;19936;-60
2024/04/14 15:21:22;;;;;;;;;;;;;;;;;;5450966;26;20373;-61
2024/04/14 15:23:47;;;;;;;;;;;;;;;;;;5451220;26;20373;-59
2024/04/14 15:26:13;;;;;;;;;;;;;;;;;;5452365;26;19961;-61
2024/04/14 15:28:38;;;;;;;;;;;;;;;;;;5447023;26;20324;-61
2024/04/14 15:31:03;;;;;;;;;;;;;;;;;;5449986;26;20377;-60
2024/04/14 15:33:28;;;;;;;;;;;;;;;;;;5451808;26;19932;-60
2024/04/14 15:35:53;;;;;;;;;;;;;;;;;;5452258;26;19928;-59
2024/04/14 15:38:20;;;;;;;;;;;;;;;;;;5450456;26;20693;-61
2024/04/14 15:40:47;;;;;;;;;;;;;;;;;;5451001;26;20395;-60
2024/04/14 15:43:12;;;;;;;;;;;;;;;;;;5446860;26;19928;-62
2024/04/14 15:45:38;;;;;;;;;;;;;;;;;;5451281;26;19929;-61
2024/04/14 15:48:03;;;;;;;;;;;;;;;;;;5451252;26;20261;-61
2024/04/14 15:50:28;;;;;;;;;;;;;;;;;;5451193;26;19929;-60
2024/04/14 15:52:53;;;;;;;;;;;;;;;;;;5447893;26;19935;-61
2024/04/14 15:55:18;;;;;;;;;;;;;;;;;;5452117;26;19997;-61
2024/04/14 15:57:43;;;;;;;;;;;;;;;;;;5449979;26;19936;-60
2024/04/14 16:00:09;;;;;;;;;;;;;;;;;;5450978;26;19929;-60
2024/04/14 16:02:34;;;;;;;;;;;;;;;;;;5449357;26;19935;-61
2024/04/14 16:04:59;;;;;;;;;;;;;;;;;;5451571;26;19932;-60
2024/04/14 16:07:24;;;;;;;;;;;;;;;;;;5451065;26;19936;-61
2024/04/14 16:09:50;;;;;;;;;;;;;;;;;;5451782;26;19944;-61
2024/04/14 16:12:15;;;;;;;;;;;;;;;;;;5449867;26;19928;-62
2024/04/14 16:14:40;;;;;;;;;;;;;;;;;;5467023;26;19928;-61
2024/04/14 16:17:05;;;;;;;;;;;;;;;;;;5443533;26;19944;-61
2024/04/14 16:19:30;;;;;;;;;;;;;;;;;;5436259;26;20258;-60
2024/04/14 16:21:56;;;;;;;;;;;;;;;;;;5431048;26;20571;-61
2024/04/14 16:24:21;;;;;;;;;;;;;;;;;;5435715;26;19929;-61
2024/04/14 16:26:46;;;;;;;;;;;;;;;;;;5435418;26;20331;-61
2024/04/14 16:29:11;;;;;;;;;;;;;;;;;;5434163;26;19937;-61
2024/04/14 16:31:36;;;;;;;;;;;;;;;;;;5441887;26;20377;-62
2024/04/14 16:34:02;;;;;;;;;;;;;;;;;;5450579;26;20381;-60